KNFL/NFL METAR and TAF weather

Enter ICAO airport designator
Station Type Date Time Source
KNFL METAR 2021/06/24 05:56 UTC NOAA

KNFL 240556Z 32008KT 10SM FEW070 SCT120 BKN250 26/04 A3000 RMK AO2 SLP129 T02610044 10344 20261 53033


Station Type Date Time Source
KNFL Decoded METAR 2021/06/24 05:56 UTC NOAA

FALLON NAVAL AIR STATION, NV, United States (KNFL) 39-26N 118-41W 1199M
Jun 24, 2021 - 01:56 AM EDT / 2021.06.24 0556 UTC
Wind: from the NW (320 degrees) at 9 MPH (8 KT):0
Visibility: 10 mile(s):0
Sky conditions: mostly cloudy
Temperature: 79.0 F (26.1 C)
Dew Point: 39.9 F (4.4 C)
Relative Humidity: 24%
Pressure (altimeter): 30 in. Hg (1015 hPa)
Pressure tendency: 0.10 inches (3.3 hPa) higher than three hours ago
ob: KNFL 240556Z 32008KT 10SM FEW070 SCT120 BKN250 26/04 A3000 RMK AO2 SLP129 T02610044 10344 20261 53033
cycle: 6

Station Type Date Time Source
KNFL TAF 2021/06/23 23:20 UTC NOAA

TAF KNFL 2323/2423 30010G15KT 9999 VCTS SCT070CB BKN120 BKN250 QNH2980INS
TEMPO 2402/2406 VRB20G30KT 6000 -TSRA BLDU BKN070CB OVC100
FM240700 26008KT 9999 FEW070 SCT120 SCT250 QNH2983INS T14/2413Z T33/2423Z FS30123

Example: see airport list